sensor_id;sensor_type;location;lat;lon;timestamp;P1;durP1;ratioP1;P2;durP2;ratioP2
52734;SDS011;38631;47.572;10.704;2024-01-11T00:00:38;28.90;;;9.85;;
52734;SDS011;38631;47.572;10.704;2024-01-11T00:03:03;49.88;;;12.00;;
52734;SDS011;38631;47.572;10.704;2024-01-11T00:05:29;38.30;;;9.90;;
52734;SDS011;38631;47.572;10.704;2024-01-11T00:07:56;27.58;;;10.75;;
52734;SDS011;38631;47.572;10.704;2024-01-11T00:10:24;16.92;;;9.15;;
52734;SDS011;38631;47.572;10.704;2024-01-11T00:12:50;23.02;;;11.18;;
52734;SDS011;38631;47.572;10.704;2024-01-11T00:15:15;20.05;;;9.75;;
52734;SDS011;38631;47.572;10.704;2024-01-11T00:17:41;24.50;;;10.27;;
52734;SDS011;38631;47.572;10.704;2024-01-11T00:20:07;24.45;;;11.32;;
52734;SDS011;38631;47.572;10.704;2024-01-11T00:22:33;80.72;;;11.30;;
52734;SDS011;38631;47.572;10.704;2024-01-11T00:24:58;46.75;;;11.75;;
52734;SDS011;38631;47.572;10.704;2024-01-11T00:27:24;19.95;;;10.07;;
52734;SDS011;38631;47.572;10.704;2024-01-11T00:29:49;42.10;;;10.70;;
52734;SDS011;38631;47.572;10.704;2024-01-11T00:32:16;19.88;;;8.75;;
52734;SDS011;38631;47.572;10.704;2024-01-11T00:34:47;24.77;;;8.90;;
52734;SDS011;38631;47.572;10.704;2024-01-11T00:37:19;15.55;;;8.43;;
52734;SDS011;38631;47.572;10.704;2024-01-11T00:39:44;55.15;;;10.60;;
52734;SDS011;38631;47.572;10.704;2024-01-11T00:42:19;39.50;;;9.38;;
52734;SDS011;38631;47.572;10.704;2024-01-11T00:44:44;57.45;;;10.90;;
52734;SDS011;38631;47.572;10.704;2024-01-11T00:47:21;28.02;;;8.77;;
52734;SDS011;38631;47.572;10.704;2024-01-11T00:49:50;20.77;;;9.20;;
52734;SDS011;38631;47.572;10.704;2024-01-11T00:52:28;19.90;;;8.88;;
52734;SDS011;38631;47.572;10.704;2024-01-11T00:55:00;18.25;;;7.88;;
52734;SDS011;38631;47.572;10.704;2024-01-11T00:57:26;16.35;;;9.15;;
52734;SDS011;38631;47.572;10.704;2024-01-11T01:00:11;27.65;;;9.10;;
52734;SDS011;38631;47.572;10.704;2024-01-11T01:02:41;17.50;;;8.30;;
52734;SDS011;38631;47.572;10.704;2024-01-11T01:05:08;30.38;;;10.63;;
52734;SDS011;38631;47.572;10.704;2024-01-11T01:07:35;34.30;;;10.55;;
52734;SDS011;38631;47.572;10.704;2024-01-11T01:10:24;20.57;;;9.63;;
52734;SDS011;38631;47.572;10.704;2024-01-11T01:12:49;26.50;;;10.18;;
52734;SDS011;38631;47.572;10.704;2024-01-11T01:15:15;57.47;;;11.40;;
52734;SDS011;38631;47.572;10.704;2024-01-11T01:17:40;59.10;;;10.68;;
52734;SDS011;38631;47.572;10.704;2024-01-11T01:20:06;39.28;;;11.30;;
52734;SDS011;38631;47.572;10.704;2024-01-11T01:22:32;23.98;;;11.50;;
52734;SDS011;38631;47.572;10.704;2024-01-11T01:24:57;58.05;;;11.75;;
52734;SDS011;38631;47.572;10.704;2024-01-11T01:27:22;30.45;;;10.88;;
52734;SDS011;38631;47.572;10.704;2024-01-11T01:29:48;46.42;;;11.02;;
52734;SDS011;38631;47.572;10.704;2024-01-11T01:32:13;73.10;;;12.15;;
52734;SDS011;38631;47.572;10.704;2024-01-11T01:34:39;59.53;;;11.55;;
52734;SDS011;38631;47.572;10.704;2024-01-11T01:37:04;23.42;;;11.25;;
52734;SDS011;38631;47.572;10.704;2024-01-11T01:39:29;46.25;;;12.23;;
52734;SDS011;38631;47.572;10.704;2024-01-11T01:41:55;36.30;;;11.80;;
52734;SDS011;38631;47.572;10.704;2024-01-11T01:44:20;22.63;;;10.93;;
52734;SDS011;38631;47.572;10.704;2024-01-11T01:46:46;31.63;;;11.45;;
52734;SDS011;38631;47.572;10.704;2024-01-11T01:49:12;25.90;;;11.70;;
52734;SDS011;38631;47.572;10.704;2024-01-11T01:51:38;51.55;;;12.82;;
52734;SDS011;38631;47.572;10.704;2024-01-11T01:54:04;28.23;;;11.10;;
52734;SDS011;38631;47.572;10.704;2024-01-11T01:56:30;24.73;;;10.65;;
52734;SDS011;38631;47.572;10.704;2024-01-11T01:58:56;28.00;;;10.07;;
52734;SDS011;38631;47.572;10.704;2024-01-11T02:01:23;28.63;;;10.30;;
52734;SDS011;38631;47.572;10.704;2024-01-11T02:03:50;25.75;;;9.95;;
52734;SDS011;38631;47.572;10.704;2024-01-11T02:06:17;26.98;;;10.68;;
52734;SDS011;38631;47.572;10.704;2024-01-11T02:08:46;60.50;;;11.43;;
52734;SDS011;38631;47.572;10.704;2024-01-11T02:11:13;20.90;;;9.77;;
52734;SDS011;38631;47.572;10.704;2024-01-11T02:13:39;21.15;;;10.02;;
52734;SDS011;38631;47.572;10.704;2024-01-11T02:16:05;37.28;;;10.80;;
52734;SDS011;38631;47.572;10.704;2024-01-11T02:18:30;17.10;;;10.00;;
52734;SDS011;38631;47.572;10.704;2024-01-11T02:20:56;30.80;;;10.80;;
52734;SDS011;38631;47.572;10.704;2024-01-11T02:23:21;23.73;;;10.02;;
52734;SDS011;38631;47.572;10.704;2024-01-11T02:25:51;24.52;;;10.68;;
52734;SDS011;38631;47.572;10.704;2024-01-11T02:28:17;35.50;;;10.98;;
52734;SDS011;38631;47.572;10.704;2024-01-11T02:30:42;20.17;;;10.48;;
52734;SDS011;38631;47.572;10.704;2024-01-11T02:33:08;22.20;;;10.88;;
52734;SDS011;38631;47.572;10.704;2024-01-11T02:35:34;36.80;;;11.40;;
52734;SDS011;38631;47.572;10.704;2024-01-11T02:38:02;19.20;;;9.75;;
52734;SDS011;38631;47.572;10.704;2024-01-11T02:40:28;25.85;;;10.38;;
52734;SDS011;38631;47.572;10.704;2024-01-11T02:42:54;20.95;;;9.85;;
52734;SDS011;38631;47.572;10.704;2024-01-11T02:45:19;22.58;;;10.57;;
52734;SDS011;38631;47.572;10.704;2024-01-11T02:47:45;19.05;;;10.38;;
52734;SDS011;38631;47.572;10.704;2024-01-11T02:50:10;19.38;;;9.65;;
52734;SDS011;38631;47.572;10.704;2024-01-11T02:52:37;20.40;;;9.57;;
52734;SDS011;38631;47.572;10.704;2024-01-11T02:55:03;18.25;;;10.27;;
52734;SDS011;38631;47.572;10.704;2024-01-11T02:57:28;16.70;;;9.15;;
52734;SDS011;38631;47.572;10.704;2024-01-11T02:59:54;17.67;;;9.90;;
52734;SDS011;38631;47.572;10.704;2024-01-11T03:02:19;19.65;;;9.82;;
52734;SDS011;38631;47.572;10.704;2024-01-11T03:04:45;24.70;;;9.77;;
52734;SDS011;38631;47.572;10.704;2024-01-11T03:07:10;16.05;;;9.35;;
52734;SDS011;38631;47.572;10.704;2024-01-11T03:09:36;19.83;;;8.93;;
52734;SDS011;38631;47.572;10.704;2024-01-11T03:12:01;17.95;;;9.48;;
52734;SDS011;38631;47.572;10.704;2024-01-11T03:14:27;17.48;;;9.88;;
52734;SDS011;38631;47.572;10.704;2024-01-11T03:16:52;19.00;;;9.73;;
52734;SDS011;38631;47.572;10.704;2024-01-11T03:19:17;21.70;;;9.90;;
52734;SDS011;38631;47.572;10.704;2024-01-11T03:21:43;22.17;;;10.43;;
52734;SDS011;38631;47.572;10.704;2024-01-11T03:24:08;20.92;;;11.77;;
52734;SDS011;38631;47.572;10.704;2024-01-11T03:26:34;25.48;;;11.13;;
52734;SDS011;38631;47.572;10.704;2024-01-11T03:28:59;20.48;;;10.20;;
52734;SDS011;38631;47.572;10.704;2024-01-11T03:31:25;27.23;;;10.80;;
52734;SDS011;38631;47.572;10.704;2024-01-11T03:33:50;19.95;;;9.88;;
52734;SDS011;38631;47.572;10.704;2024-01-11T03:36:16;23.77;;;10.38;;
52734;SDS011;38631;47.572;10.704;2024-01-11T03:38:41;18.63;;;9.80;;
52734;SDS011;38631;47.572;10.704;2024-01-11T03:41:07;21.30;;;10.55;;
52734;SDS011;38631;47.572;10.704;2024-01-11T03:43:36;24.42;;;10.43;;
52734;SDS011;38631;47.572;10.704;2024-01-11T03:46:02;35.17;;;10.93;;
52734;SDS011;38631;47.572;10.704;2024-01-11T03:48:28;18.55;;;10.80;;
52734;SDS011;38631;47.572;10.704;2024-01-11T03:50:53;38.45;;;11.15;;
52734;SDS011;38631;47.572;10.704;2024-01-11T03:53:18;28.10;;;10.82;;
52734;SDS011;38631;47.572;10.704;2024-01-11T03:55:44;20.13;;;10.68;;
52734;SDS011;38631;47.572;10.704;2024-01-11T03:58:09;21.20;;;10.23;;
52734;SDS011;38631;47.572;10.704;2024-01-11T04:00:34;17.38;;;9.50;;
52734;SDS011;38631;47.572;10.704;2024-01-11T04:03:00;21.63;;;9.90;;
52734;SDS011;38631;47.572;10.704;2024-01-11T04:05:26;20.23;;;10.60;;
52734;SDS011;38631;47.572;10.704;2024-01-11T04:07:52;21.85;;;9.90;;
52734;SDS011;38631;47.572;10.704;2024-01-11T04:10:17;23.38;;;10.38;;
52734;SDS011;38631;47.572;10.704;2024-01-11T04:12:43;30.15;;;11.25;;
52734;SDS011;38631;47.572;10.704;2024-01-11T04:15:08;35.13;;;11.80;;
52734;SDS011;38631;47.572;10.704;2024-01-11T04:17:36;20.95;;;10.70;;
52734;SDS011;38631;47.572;10.704;2024-01-11T04:20:03;26.92;;;10.63;;
52734;SDS011;38631;47.572;10.704;2024-01-11T04:22:29;23.98;;;11.32;;
52734;SDS011;38631;47.572;10.704;2024-01-11T04:24:55;38.65;;;12.02;;
52734;SDS011;38631;47.572;10.704;2024-01-11T04:27:20;46.45;;;13.00;;
52734;SDS011;38631;47.572;10.704;2024-01-11T04:29:45;27.55;;;12.88;;
52734;SDS011;38631;47.572;10.704;2024-01-11T04:32:11;33.47;;;11.20;;
52734;SDS011;38631;47.572;10.704;2024-01-11T04:34:36;33.80;;;11.70;;
52734;SDS011;38631;47.572;10.704;2024-01-11T04:37:02;24.75;;;11.55;;
52734;SDS011;38631;47.572;10.704;2024-01-11T04:39:27;26.92;;;11.27;;
52734;SDS011;38631;47.572;10.704;2024-01-11T04:41:53;56.17;;;12.10;;
52734;SDS011;38631;47.572;10.704;2024-01-11T04:44:18;42.25;;;12.13;;
52734;SDS011;38631;47.572;10.704;2024-01-11T04:46:43;35.40;;;12.70;;
52734;SDS011;38631;47.572;10.704;2024-01-11T04:49:09;32.15;;;12.90;;
52734;SDS011;38631;47.572;10.704;2024-01-11T04:51:34;27.25;;;11.13;;
52734;SDS011;38631;47.572;10.704;2024-01-11T04:53:59;24.27;;;10.63;;
52734;SDS011;38631;47.572;10.704;2024-01-11T04:56:25;23.42;;;11.40;;
52734;SDS011;38631;47.572;10.704;2024-01-11T04:58:52;22.55;;;12.25;;
52734;SDS011;38631;47.572;10.704;2024-01-11T05:01:18;25.05;;;12.45;;
52734;SDS011;38631;47.572;10.704;2024-01-11T05:03:44;24.58;;;12.43;;
52734;SDS011;38631;47.572;10.704;2024-01-11T05:08:42;20.77;;;11.13;;
52734;SDS011;38631;47.572;10.704;2024-01-11T05:11:14;24.60;;;12.00;;
52734;SDS011;38631;47.572;10.704;2024-01-11T05:13:43;20.27;;;10.02;;
52734;SDS011;38631;47.572;10.704;2024-01-11T05:16:30;21.77;;;12.25;;
52734;SDS011;38631;47.572;10.704;2024-01-11T05:18:56;22.35;;;10.52;;
52734;SDS011;38631;47.572;10.704;2024-01-11T05:21:22;19.83;;;11.52;;
52734;SDS011;38631;47.572;10.704;2024-01-11T05:23:48;23.17;;;10.98;;
52734;SDS011;38631;47.572;10.704;2024-01-11T05:26:14;22.23;;;11.25;;
52734;SDS011;38631;47.572;10.704;2024-01-11T05:28:40;21.20;;;11.18;;
52734;SDS011;38631;47.572;10.704;2024-01-11T05:31:10;22.80;;;11.52;;
52734;SDS011;38631;47.572;10.704;2024-01-11T05:33:37;21.42;;;11.00;;
52734;SDS011;38631;47.572;10.704;2024-01-11T05:36:05;22.75;;;11.68;;
52734;SDS011;38631;47.572;10.704;2024-01-11T05:38:31;18.73;;;10.15;;
52734;SDS011;38631;47.572;10.704;2024-01-11T05:40:56;20.77;;;11.30;;
52734;SDS011;38631;47.572;10.704;2024-01-11T05:43:22;30.10;;;11.82;;
52734;SDS011;38631;47.572;10.704;2024-01-11T05:45:48;26.83;;;12.60;;
52734;SDS011;38631;47.572;10.704;2024-01-11T05:48:15;19.35;;;10.35;;
52734;SDS011;38631;47.572;10.704;2024-01-11T05:50:41;22.80;;;11.73;;
52734;SDS011;38631;47.572;10.704;2024-01-11T05:53:07;21.63;;;10.88;;
52734;SDS011;38631;47.572;10.704;2024-01-11T05:55:32;28.05;;;11.75;;
52734;SDS011;38631;47.572;10.704;2024-01-11T05:57:57;23.95;;;11.52;;
52734;SDS011;38631;47.572;10.704;2024-01-11T06:00:23;23.33;;;11.75;;
52734;SDS011;38631;47.572;10.704;2024-01-11T06:02:48;21.42;;;10.95;;
52734;SDS011;38631;47.572;10.704;2024-01-11T06:05:14;24.05;;;11.25;;
52734;SDS011;38631;47.572;10.704;2024-01-11T06:07:40;22.98;;;10.73;;
52734;SDS011;38631;47.572;10.704;2024-01-11T06:10:06;22.52;;;11.38;;
52734;SDS011;38631;47.572;10.704;2024-01-11T06:12:33;18.73;;;10.65;;
52734;SDS011;38631;47.572;10.704;2024-01-11T06:15:00;21.25;;;10.82;;
52734;SDS011;38631;47.572;10.704;2024-01-11T06:17:26;22.67;;;11.32;;
52734;SDS011;38631;47.572;10.704;2024-01-11T06:19:51;26.60;;;11.68;;
52734;SDS011;38631;47.572;10.704;2024-01-11T06:22:17;21.88;;;10.90;;
52734;SDS011;38631;47.572;10.704;2024-01-11T06:24:43;22.52;;;9.90;;
52734;SDS011;38631;47.572;10.704;2024-01-11T06:27:08;34.97;;;9.95;;
52734;SDS011;38631;47.572;10.704;2024-01-11T06:29:35;25.10;;;10.85;;
52734;SDS011;38631;47.572;10.704;2024-01-11T06:32:01;19.48;;;9.90;;
52734;SDS011;38631;47.572;10.704;2024-01-11T06:34:27;33.92;;;11.23;;
52734;SDS011;38631;47.572;10.704;2024-01-11T06:36:53;53.05;;;12.00;;
52734;SDS011;38631;47.572;10.704;2024-01-11T06:39:19;47.00;;;10.88;;
52734;SDS011;38631;47.572;10.704;2024-01-11T06:41:44;58.33;;;12.48;;
52734;SDS011;38631;47.572;10.704;2024-01-11T06:44:10;27.85;;;12.32;;
52734;SDS011;38631;47.572;10.704;2024-01-11T06:46:35;30.85;;;11.35;;
52734;SDS011;38631;47.572;10.704;2024-01-11T06:49:01;24.40;;;10.25;;
52734;SDS011;38631;47.572;10.704;2024-01-11T06:51:27;39.40;;;11.32;;
52734;SDS011;38631;47.572;10.704;2024-01-11T06:53:52;58.47;;;12.70;;
52734;SDS011;38631;47.572;10.704;2024-01-11T06:56:19;48.70;;;12.25;;
52734;SDS011;38631;47.572;10.704;2024-01-11T06:58:45;50.92;;;12.10;;
52734;SDS011;38631;47.572;10.704;2024-01-11T07:01:11;23.75;;;10.20;;
52734;SDS011;38631;47.572;10.704;2024-01-11T07:03:37;22.00;;;11.40;;
52734;SDS011;38631;47.572;10.704;2024-01-11T07:06:03;28.75;;;10.40;;
52734;SDS011;38631;47.572;10.704;2024-01-11T07:08:28;18.55;;;9.52;;
52734;SDS011;38631;47.572;10.704;2024-01-11T07:10:54;16.30;;;10.20;;
52734;SDS011;38631;47.572;10.704;2024-01-11T07:13:19;18.35;;;10.02;;
52734;SDS011;38631;47.572;10.704;2024-01-11T07:15:45;17.98;;;9.65;;
52734;SDS011;38631;47.572;10.704;2024-01-11T07:18:10;21.83;;;10.68;;
52734;SDS011;38631;47.572;10.704;2024-01-11T07:20:36;20.92;;;10.38;;
52734;SDS011;38631;47.572;10.704;2024-01-11T07:23:01;20.40;;;10.90;;
52734;SDS011;38631;47.572;10.704;2024-01-11T07:25:26;22.30;;;10.70;;
52734;SDS011;38631;47.572;10.704;2024-01-11T07:27:52;23.02;;;10.98;;
52734;SDS011;38631;47.572;10.704;2024-01-11T07:30:17;25.58;;;11.15;;
52734;SDS011;38631;47.572;10.704;2024-01-11T07:32:45;23.20;;;11.90;;
52734;SDS011;38631;47.572;10.704;2024-01-11T07:35:11;27.58;;;12.70;;
52734;SDS011;38631;47.572;10.704;2024-01-11T07:37:37;21.95;;;11.00;;
52734;SDS011;38631;47.572;10.704;2024-01-11T07:40:03;42.47;;;11.43;;
52734;SDS011;38631;47.572;10.704;2024-01-11T07:42:29;25.27;;;10.85;;
52734;SDS011;38631;47.572;10.704;2024-01-11T07:44:55;20.38;;;9.85;;
52734;SDS011;38631;47.572;10.704;2024-01-11T07:47:20;20.10;;;10.88;;
52734;SDS011;38631;47.572;10.704;2024-01-11T07:49:45;69.15;;;12.15;;
52734;SDS011;38631;47.572;10.704;2024-01-11T07:52:11;31.17;;;10.50;;
52734;SDS011;38631;47.572;10.704;2024-01-11T07:54:36;25.83;;;11.20;;
52734;SDS011;38631;47.572;10.704;2024-01-11T07:57:03;23.60;;;11.13;;
52734;SDS011;38631;47.572;10.704;2024-01-11T07:59:32;23.60;;;12.20;;
52734;SDS011;38631;47.572;10.704;2024-01-11T08:02:00;23.80;;;11.73;;
52734;SDS011;38631;47.572;10.704;2024-01-11T08:04:26;23.23;;;11.45;;
52734;SDS011;38631;47.572;10.704;2024-01-11T08:06:52;22.00;;;10.50;;
52734;SDS011;38631;47.572;10.704;2024-01-11T08:09:17;23.38;;;11.55;;
52734;SDS011;38631;47.572;10.704;2024-01-11T08:11:43;24.40;;;13.07;;
52734;SDS011;38631;47.572;10.704;2024-01-11T08:14:08;29.90;;;11.98;;
52734;SDS011;38631;47.572;10.704;2024-01-11T08:16:34;22.83;;;11.00;;
52734;SDS011;38631;47.572;10.704;2024-01-11T08:18:59;24.92;;;11.63;;
52734;SDS011;38631;47.572;10.704;2024-01-11T08:21:25;24.85;;;11.60;;
52734;SDS011;38631;47.572;10.704;2024-01-11T08:23:51;23.35;;;10.68;;
52734;SDS011;38631;47.572;10.704;2024-01-11T08:26:17;24.20;;;11.45;;
52734;SDS011;38631;47.572;10.704;2024-01-11T08:28:46;25.45;;;11.13;;
52734;SDS011;38631;47.572;10.704;2024-01-11T08:31:11;22.92;;;11.20;;
52734;SDS011;38631;47.572;10.704;2024-01-11T08:33:37;20.60;;;10.32;;
52734;SDS011;38631;47.572;10.704;2024-01-11T08:36:06;21.27;;;10.27;;
52734;SDS011;38631;47.572;10.704;2024-01-11T08:38:32;23.27;;;10.55;;
52734;SDS011;38631;47.572;10.704;2024-01-11T08:40:57;25.25;;;10.70;;
52734;SDS011;38631;47.572;10.704;2024-01-11T08:43:24;19.52;;;10.48;;
52734;SDS011;38631;47.572;10.704;2024-01-11T08:45:50;29.23;;;12.00;;
52734;SDS011;38631;47.572;10.704;2024-01-11T08:48:15;20.63;;;10.15;;
52734;SDS011;38631;47.572;10.704;2024-01-11T08:50:40;21.33;;;11.60;;
52734;SDS011;38631;47.572;10.704;2024-01-11T08:53:06;26.20;;;11.95;;
52734;SDS011;38631;47.572;10.704;2024-01-11T08:55:32;25.80;;;12.27;;
52734;SDS011;38631;47.572;10.704;2024-01-11T08:57:57;25.52;;;10.85;;
52734;SDS011;38631;47.572;10.704;2024-01-11T09:00:23;33.35;;;11.60;;
52734;SDS011;38631;47.572;10.704;2024-01-11T09:02:48;30.88;;;11.43;;
52734;SDS011;38631;47.572;10.704;2024-01-11T09:05:14;24.98;;;11.70;;
52734;SDS011;38631;47.572;10.704;2024-01-11T09:07:39;21.88;;;11.05;;
52734;SDS011;38631;47.572;10.704;2024-01-11T09:10:05;24.30;;;10.85;;
52734;SDS011;38631;47.572;10.704;2024-01-11T09:12:33;25.33;;;12.10;;
52734;SDS011;38631;47.572;10.704;2024-01-11T09:14:59;20.25;;;9.43;;
52734;SDS011;38631;47.572;10.704;2024-01-11T09:17:24;20.33;;;10.35;;
52734;SDS011;38631;47.572;10.704;2024-01-11T09:19:50;20.80;;;10.10;;
52734;SDS011;38631;47.572;10.704;2024-01-11T09:22:16;19.20;;;8.95;;
52734;SDS011;38631;47.572;10.704;2024-01-11T09:24:41;21.27;;;10.30;;
52734;SDS011;38631;47.572;10.704;2024-01-11T09:27:07;23.65;;;9.95;;
52734;SDS011;38631;47.572;10.704;2024-01-11T09:29:32;23.27;;;10.45;;
52734;SDS011;38631;47.572;10.704;2024-01-11T09:31:58;21.90;;;9.82;;
52734;SDS011;38631;47.572;10.704;2024-01-11T09:34:24;19.67;;;10.57;;
52734;SDS011;38631;47.572;10.704;2024-01-11T09:36:50;19.35;;;8.85;;
52734;SDS011;38631;47.572;10.704;2024-01-11T09:39:15;17.73;;;8.18;;
52734;SDS011;38631;47.572;10.704;2024-01-11T09:41:42;19.45;;;7.82;;
52734;SDS011;38631;47.572;10.704;2024-01-11T09:44:17;18.95;;;8.27;;
52734;SDS011;38631;47.572;10.704;2024-01-11T09:46:43;16.38;;;8.20;;
52734;SDS011;38631;47.572;10.704;2024-01-11T09:49:08;16.88;;;8.07;;
52734;SDS011;38631;47.572;10.704;2024-01-11T09:51:35;17.10;;;7.93;;
52734;SDS011;38631;47.572;10.704;2024-01-11T09:54:04;19.95;;;9.20;;
52734;SDS011;38631;47.572;10.704;2024-01-11T09:56:32;23.05;;;8.10;;
52734;SDS011;38631;47.572;10.704;2024-01-11T09:58:57;17.00;;;8.48;;
52734;SDS011;38631;47.572;10.704;2024-01-11T10:01:22;20.25;;;8.85;;
52734;SDS011;38631;47.572;10.704;2024-01-11T10:03:49;18.90;;;8.75;;
52734;SDS011;38631;47.572;10.704;2024-01-11T10:06:17;17.88;;;8.18;;
52734;SDS011;38631;47.572;10.704;2024-01-11T10:08:44;19.13;;;8.88;;
52734;SDS011;38631;47.572;10.704;2024-01-11T10:11:09;15.45;;;7.55;;
52734;SDS011;38631;47.572;10.704;2024-01-11T10:13:35;17.98;;;8.35;;
52734;SDS011;38631;47.572;10.704;2024-01-11T10:16:04;17.88;;;8.77;;
52734;SDS011;38631;47.572;10.704;2024-01-11T10:18:31;15.57;;;8.27;;
52734;SDS011;38631;47.572;10.704;2024-01-11T10:20:57;10.93;;;5.97;;
52734;SDS011;38631;47.572;10.704;2024-01-11T10:23:22;10.68;;;5.50;;
52734;SDS011;38631;47.572;10.704;2024-01-11T10:25:48;13.60;;;6.38;;
52734;SDS011;38631;47.572;10.704;2024-01-11T10:28:13;15.90;;;7.15;;
52734;SDS011;38631;47.572;10.704;2024-01-11T10:30:39;13.95;;;7.55;;
52734;SDS011;38631;47.572;10.704;2024-01-11T10:33:06;15.60;;;7.63;;
52734;SDS011;38631;47.572;10.704;2024-01-11T10:38:02;16.42;;;8.25;;
52734;SDS011;38631;47.572;10.704;2024-01-11T10:40:40;18.45;;;7.05;;
52734;SDS011;38631;47.572;10.704;2024-01-11T10:43:28;14.85;;;7.28;;
52734;SDS011;38631;47.572;10.704;2024-01-11T10:46:22;17.73;;;8.70;;
52734;SDS011;38631;47.572;10.704;2024-01-11T10:48:52;18.02;;;8.32;;
52734;SDS011;38631;47.572;10.704;2024-01-11T10:54:34;15.45;;;8.25;;
52734;SDS011;38631;47.572;10.704;2024-01-11T10:57:21;13.55;;;7.72;;
52734;SDS011;38631;47.572;10.704;2024-01-11T11:00:31;17.08;;;7.75;;
52734;SDS011;38631;47.572;10.704;2024-01-11T11:02:59;15.45;;;8.30;;
52734;SDS011;38631;47.572;10.704;2024-01-11T11:05:25;14.50;;;7.03;;
52734;SDS011;38631;47.572;10.704;2024-01-11T11:07:53;15.98;;;8.77;;
52734;SDS011;38631;47.572;10.704;2024-01-11T11:10:21;18.23;;;8.70;;
52734;SDS011;38631;47.572;10.704;2024-01-11T11:12:47;15.50;;;8.02;;
52734;SDS011;38631;47.572;10.704;2024-01-11T11:15:13;16.67;;;8.73;;
52734;SDS011;38631;47.572;10.704;2024-01-11T11:17:42;14.48;;;7.80;;
52734;SDS011;38631;47.572;10.704;2024-01-11T11:20:09;15.93;;;8.20;;
52734;SDS011;38631;47.572;10.704;2024-01-11T11:22:40;16.40;;;9.27;;
52734;SDS011;38631;47.572;10.704;2024-01-11T11:25:09;19.92;;;9.82;;
52734;SDS011;38631;47.572;10.704;2024-01-11T11:27:36;17.10;;;9.02;;
52734;SDS011;38631;47.572;10.704;2024-01-11T11:30:02;15.13;;;7.88;;
52734;SDS011;38631;47.572;10.704;2024-01-11T11:32:38;20.05;;;10.73;;
52734;SDS011;38631;47.572;10.704;2024-01-11T11:35:08;21.23;;;10.45;;
52734;SDS011;38631;47.572;10.704;2024-01-11T11:37:36;18.27;;;9.45;;
52734;SDS011;38631;47.572;10.704;2024-01-11T11:40:02;16.90;;;8.90;;
52734;SDS011;38631;47.572;10.704;2024-01-11T11:42:34;14.77;;;7.32;;
52734;SDS011;38631;47.572;10.704;2024-01-11T11:45:00;16.50;;;7.65;;
52734;SDS011;38631;47.572;10.704;2024-01-11T11:47:32;13.43;;;7.32;;
52734;SDS011;38631;47.572;10.704;2024-01-11T11:50:07;15.65;;;7.90;;
52734;SDS011;38631;47.572;10.704;2024-01-11T11:52:36;15.90;;;8.68;;
52734;SDS011;38631;47.572;10.704;2024-01-11T12:10:59;18.35;;;9.65;;
52734;SDS011;38631;47.572;10.704;2024-01-11T12:13:24;16.80;;;8.98;;
52734;SDS011;38631;47.572;10.704;2024-01-11T12:15:50;18.05;;;10.23;;
52734;SDS011;38631;47.572;10.704;2024-01-11T12:18:16;15.15;;;8.07;;
52734;SDS011;38631;47.572;10.704;2024-01-11T12:20:41;14.77;;;7.95;;
52734;SDS011;38631;47.572;10.704;2024-01-11T12:23:06;17.50;;;7.95;;
52734;SDS011;38631;47.572;10.704;2024-01-11T12:25:32;18.00;;;9.60;;
52734;SDS011;38631;47.572;10.704;2024-01-11T12:28:02;16.70;;;7.97;;
52734;SDS011;38631;47.572;10.704;2024-01-11T12:32:55;16.88;;;8.02;;
52734;SDS011;38631;47.572;10.704;2024-01-11T12:35:21;15.52;;;7.95;;
52734;SDS011;38631;47.572;10.704;2024-01-11T12:38:03;16.05;;;8.52;;
52734;SDS011;38631;47.572;10.704;2024-01-11T12:40:36;19.20;;;8.00;;
52734;SDS011;38631;47.572;10.704;2024-01-11T13:01:12;16.58;;;8.90;;
52734;SDS011;38631;47.572;10.704;2024-01-11T13:37:12;21.88;;;10.32;;
52734;SDS011;38631;47.572;10.704;2024-01-11T13:42:56;24.95;;;11.93;;
52734;SDS011;38631;47.572;10.704;2024-01-11T14:16:25;23.67;;;11.57;;
52734;SDS011;38631;47.572;10.704;2024-01-11T14:18:50;22.52;;;11.65;;
52734;SDS011;38631;47.572;10.704;2024-01-11T14:21:15;23.60;;;11.13;;
52734;SDS011;38631;47.572;10.704;2024-01-11T14:23:41;24.13;;;12.02;;
52734;SDS011;38631;47.572;10.704;2024-01-11T14:26:06;27.42;;;12.95;;
52734;SDS011;38631;47.572;10.704;2024-01-11T14:28:32;23.65;;;11.05;;
52734;SDS011;38631;47.572;10.704;2024-01-11T14:30:57;24.55;;;12.02;;
52734;SDS011;38631;47.572;10.704;2024-01-11T14:33:22;27.83;;;12.52;;
52734;SDS011;38631;47.572;10.704;2024-01-11T14:35:48;27.90;;;12.68;;
52734;SDS011;38631;47.572;10.704;2024-01-11T14:38:13;26.60;;;13.00;;
52734;SDS011;38631;47.572;10.704;2024-01-11T14:40:39;28.98;;;11.38;;
52734;SDS011;38631;47.572;10.704;2024-01-11T14:43:06;26.23;;;11.65;;
52734;SDS011;38631;47.572;10.704;2024-01-11T14:45:33;26.45;;;13.05;;
52734;SDS011;38631;47.572;10.704;2024-01-11T14:47:58;26.80;;;12.80;;
52734;SDS011;38631;47.572;10.704;2024-01-11T14:50:24;25.20;;;11.38;;
52734;SDS011;38631;47.572;10.704;2024-01-11T14:52:49;27.25;;;13.77;;
52734;SDS011;38631;47.572;10.704;2024-01-11T14:55:15;27.08;;;13.65;;
52734;SDS011;38631;47.572;10.704;2024-01-11T14:57:41;26.13;;;12.73;;
52734;SDS011;38631;47.572;10.704;2024-01-11T15:00:06;29.20;;;12.32;;
52734;SDS011;38631;47.572;10.704;2024-01-11T15:02:33;21.80;;;10.95;;
52734;SDS011;38631;47.572;10.704;2024-01-11T15:04:59;26.40;;;11.55;;
52734;SDS011;38631;47.572;10.704;2024-01-11T15:07:25;24.70;;;12.00;;
52734;SDS011;38631;47.572;10.704;2024-01-11T15:09:50;29.33;;;13.48;;
52734;SDS011;38631;47.572;10.704;2024-01-11T15:12:16;23.30;;;12.25;;
52734;SDS011;38631;47.572;10.704;2024-01-11T15:17:27;18.48;;;8.88;;
52734;SDS011;38631;47.572;10.704;2024-01-11T15:19:52;21.63;;;10.07;;
52734;SDS011;38631;47.572;10.704;2024-01-11T15:22:17;23.35;;;10.18;;
52734;SDS011;38631;47.572;10.704;2024-01-11T15:24:43;23.17;;;10.48;;
52734;SDS011;38631;47.572;10.704;2024-01-11T15:27:08;26.90;;;11.43;;
52734;SDS011;38631;47.572;10.704;2024-01-11T15:29:41;26.08;;;12.23;;
52734;SDS011;38631;47.572;10.704;2024-01-11T15:32:06;28.05;;;11.65;;
52734;SDS011;38631;47.572;10.704;2024-01-11T15:34:35;23.13;;;11.93;;
52734;SDS011;38631;47.572;10.704;2024-01-11T15:37:00;22.83;;;10.43;;
52734;SDS011;38631;47.572;10.704;2024-01-11T15:39:26;29.73;;;13.68;;
52734;SDS011;38631;47.572;10.704;2024-01-11T15:41:51;29.50;;;14.32;;
52734;SDS011;38631;47.572;10.704;2024-01-11T15:46:54;25.73;;;11.93;;
52734;SDS011;38631;47.572;10.704;2024-01-11T15:52:25;29.45;;;14.68;;
52734;SDS011;38631;47.572;10.704;2024-01-11T15:54:50;29.38;;;13.20;;
52734;SDS011;38631;47.572;10.704;2024-01-11T15:57:15;33.20;;;12.52;;
52734;SDS011;38631;47.572;10.704;2024-01-11T15:59:41;29.23;;;12.45;;
52734;SDS011;38631;47.572;10.704;2024-01-11T16:02:07;38.55;;;16.70;;
52734;SDS011;38631;47.572;10.704;2024-01-11T16:04:33;33.90;;;16.00;;
52734;SDS011;38631;47.572;10.704;2024-01-11T16:07:00;39.38;;;16.65;;
52734;SDS011;38631;47.572;10.704;2024-01-11T16:09:25;33.95;;;14.82;;
52734;SDS011;38631;47.572;10.704;2024-01-11T16:11:51;37.33;;;16.52;;